Terminal Aerodrome Forecast
Issued by NWS

Home | Current Version | Previous Version | Text Only | Print | Product List | Glossary On
Versions: 1 2 3 4 5 6 7 8 9 10 11 12 13
000
FTUS43 KFGF 060500
TAFDVL
TAF
KDVL 060537Z 0606/0706 26010KT P6SM SCT250
     FM061700 24013KT P6SM BKN100
     FM062200 27014G20KT P6SM BKN050
     FM070200 32015G23KT P6SM BKN050
      AMD LTD TO CLD VIS AND WIND=

USA.gov is the U.S. government's official web portal to all federal, state and local government web resources and services.